sensor_id;sensor_type;location;lat;lon;timestamp;P1;durP1;ratioP1;P2;durP2;ratioP2
32152;SDS011;18656;50.580;11.392;2023-04-01T00:01:11;4.18;;;0.80;;
32152;SDS011;18656;50.580;11.392;2023-04-01T00:06:12;4.93;;;0.65;;
32152;SDS011;18656;50.580;11.392;2023-04-01T00:08:40;2.63;;;0.88;;
32152;SDS011;18656;50.580;11.392;2023-04-01T00:11:07;2.47;;;0.70;;
32152;SDS011;18656;50.580;11.392;2023-04-01T00:13:34;3.05;;;1.00;;
32152;SDS011;18656;50.580;11.392;2023-04-01T00:16:02;3.80;;;0.90;;
32152;SDS011;18656;50.580;11.392;2023-04-01T00:21:13;5.10;;;1.40;;
32152;SDS011;18656;50.580;11.392;2023-04-01T00:23:41;5.10;;;1.15;;
32152;SDS011;18656;50.580;11.392;2023-04-01T00:26:08;2.45;;;0.77;;
32152;SDS011;18656;50.580;11.392;2023-04-01T00:28:36;4.03;;;1.08;;
32152;SDS011;18656;50.580;11.392;2023-04-01T00:31:04;2.92;;;1.00;;
32152;SDS011;18656;50.580;11.392;2023-04-01T00:33:31;3.47;;;1.05;;
32152;SDS011;18656;50.580;11.392;2023-04-01T00:36:12;4.45;;;1.20;;
32152;SDS011;18656;50.580;11.392;2023-04-01T00:38:39;7.05;;;1.20;;
32152;SDS011;18656;50.580;11.392;2023-04-01T00:41:09;3.05;;;1.23;;
32152;SDS011;18656;50.580;11.392;2023-04-01T00:43:43;4.25;;;0.90;;
32152;SDS011;18656;50.580;11.392;2023-04-01T00:46:11;2.75;;;0.80;;
32152;SDS011;18656;50.580;11.392;2023-04-01T00:48:39;1.77;;;0.50;;
32152;SDS011;18656;50.580;11.392;2023-04-01T00:51:13;3.70;;;1.23;;
32152;SDS011;18656;50.580;11.392;2023-04-01T00:53:42;3.05;;;0.95;;
32152;SDS011;18656;50.580;11.392;2023-04-01T00:56:11;3.63;;;1.10;;
32152;SDS011;18656;50.580;11.392;2023-04-01T00:58:45;1.92;;;0.80;;
32152;SDS011;18656;50.580;11.392;2023-04-01T01:01:13;2.97;;;0.90;;
32152;SDS011;18656;50.580;11.392;2023-04-01T01:03:41;2.65;;;0.88;;
32152;SDS011;18656;50.580;11.392;2023-04-01T01:11:35;2.63;;;0.82;;
32152;SDS011;18656;50.580;11.392;2023-04-01T01:16:47;1.45;;;0.63;;
32152;SDS011;18656;50.580;11.392;2023-04-01T01:19:35;3.10;;;0.98;;
32152;SDS011;18656;50.580;11.392;2023-04-01T01:22:09;3.80;;;0.95;;
32152;SDS011;18656;50.580;11.392;2023-04-01T01:24:42;1.65;;;0.70;;
32152;SDS011;18656;50.580;11.392;2023-04-01T01:27:16;3.08;;;0.68;;
32152;SDS011;18656;50.580;11.392;2023-04-01T01:37:36;2.60;;;0.68;;
32152;SDS011;18656;50.580;11.392;2023-04-01T01:40:05;3.17;;;0.50;;
32152;SDS011;18656;50.580;11.392;2023-04-01T01:42:34;4.47;;;0.63;;
32152;SDS011;18656;50.580;11.392;2023-04-01T01:45:02;0.70;;;0.50;;
32152;SDS011;18656;50.580;11.392;2023-04-01T01:47:31;2.30;;;0.90;;
32152;SDS011;18656;50.580;11.392;2023-04-01T01:49:59;1.17;;;0.50;;
32152;SDS011;18656;50.580;11.392;2023-04-01T01:52:27;1.73;;;0.70;;
32152;SDS011;18656;50.580;11.392;2023-04-01T01:54:55;2.30;;;0.55;;
32152;SDS011;18656;50.580;11.392;2023-04-01T01:57:28;0.38;;;0.20;;
32152;SDS011;18656;50.580;11.392;2023-04-01T02:00:02;2.10;;;0.50;;
32152;SDS011;18656;50.580;11.392;2023-04-01T02:02:31;1.17;;;0.40;;
32152;SDS011;18656;50.580;11.392;2023-04-01T02:04:59;1.35;;;0.43;;
32152;SDS011;18656;50.580;11.392;2023-04-01T02:07:28;1.13;;;0.65;;
32152;SDS011;18656;50.580;11.392;2023-04-01T02:09:57;2.10;;;0.45;;
32152;SDS011;18656;50.580;11.392;2023-04-01T02:12:24;1.15;;;0.50;;
32152;SDS011;18656;50.580;11.392;2023-04-01T02:15:00;1.25;;;0.40;;
32152;SDS011;18656;50.580;11.392;2023-04-01T02:17:31;1.33;;;0.57;;
32152;SDS011;18656;50.580;11.392;2023-04-01T02:20:04;2.95;;;0.73;;
32152;SDS011;18656;50.580;11.392;2023-04-01T02:22:35;2.15;;;0.47;;
32152;SDS011;18656;50.580;11.392;2023-04-01T02:25:10;2.00;;;0.70;;
32152;SDS011;18656;50.580;11.392;2023-04-01T02:27:38;0.85;;;0.50;;
32152;SDS011;18656;50.580;11.392;2023-04-01T02:30:06;3.53;;;0.82;;
32152;SDS011;18656;50.580;11.392;2023-04-01T02:32:33;3.88;;;0.65;;
32152;SDS011;18656;50.580;11.392;2023-04-01T02:35:01;2.10;;;0.60;;
32152;SDS011;18656;50.580;11.392;2023-04-01T02:37:32;3.10;;;0.70;;
32152;SDS011;18656;50.580;11.392;2023-04-01T02:40:02;3.28;;;0.68;;
32152;SDS011;18656;50.580;11.392;2023-04-01T02:42:30;1.25;;;0.60;;
32152;SDS011;18656;50.580;11.392;2023-04-01T02:44:58;2.35;;;0.57;;
32152;SDS011;18656;50.580;11.392;2023-04-01T02:47:25;4.03;;;0.60;;
32152;SDS011;18656;50.580;11.392;2023-04-01T02:49:52;3.25;;;0.65;;
32152;SDS011;18656;50.580;11.392;2023-04-01T02:52:24;1.58;;;0.50;;
32152;SDS011;18656;50.580;11.392;2023-04-01T02:54:51;2.47;;;0.77;;
32152;SDS011;18656;50.580;11.392;2023-04-01T02:57:18;2.50;;;0.60;;
32152;SDS011;18656;50.580;11.392;2023-04-01T02:59:46;1.75;;;0.70;;
32152;SDS011;18656;50.580;11.392;2023-04-01T03:02:13;2.70;;;1.00;;
32152;SDS011;18656;50.580;11.392;2023-04-01T03:04:41;0.80;;;0.52;;
32152;SDS011;18656;50.580;11.392;2023-04-01T03:07:08;3.45;;;0.80;;
32152;SDS011;18656;50.580;11.392;2023-04-01T03:09:38;3.25;;;0.90;;
32152;SDS011;18656;50.580;11.392;2023-04-01T03:12:06;1.55;;;1.00;;
32152;SDS011;18656;50.580;11.392;2023-04-01T03:14:33;1.73;;;0.57;;
32152;SDS011;18656;50.580;11.392;2023-04-01T03:17:00;1.13;;;0.50;;
32152;SDS011;18656;50.580;11.392;2023-04-01T03:19:27;1.95;;;0.93;;
32152;SDS011;18656;50.580;11.392;2023-04-01T03:21:55;2.28;;;0.65;;
32152;SDS011;18656;50.580;11.392;2023-04-01T03:24:22;2.95;;;0.60;;
32152;SDS011;18656;50.580;11.392;2023-04-01T03:26:49;2.20;;;0.70;;
32152;SDS011;18656;50.580;11.392;2023-04-01T03:29:16;2.05;;;0.77;;
32152;SDS011;18656;50.580;11.392;2023-04-01T03:31:43;2.65;;;0.75;;
32152;SDS011;18656;50.580;11.392;2023-04-01T03:34:11;6.88;;;0.80;;
32152;SDS011;18656;50.580;11.392;2023-04-01T03:36:38;3.40;;;0.80;;
32152;SDS011;18656;50.580;11.392;2023-04-01T03:39:05;4.07;;;0.80;;
32152;SDS011;18656;50.580;11.392;2023-04-01T03:41:35;2.38;;;1.17;;
32152;SDS011;18656;50.580;11.392;2023-04-01T03:44:03;3.42;;;0.52;;
32152;SDS011;18656;50.580;11.392;2023-04-01T03:46:30;3.45;;;0.52;;
32152;SDS011;18656;50.580;11.392;2023-04-01T03:48:58;4.60;;;0.80;;
32152;SDS011;18656;50.580;11.392;2023-04-01T03:51:25;2.80;;;0.60;;
32152;SDS011;18656;50.580;11.392;2023-04-01T03:53:52;2.80;;;0.50;;
32152;SDS011;18656;50.580;11.392;2023-04-01T03:56:19;3.75;;;0.73;;
32152;SDS011;18656;50.580;11.392;2023-04-01T03:58:47;5.88;;;1.58;;
32152;SDS011;18656;50.580;11.392;2023-04-01T04:01:15;2.38;;;0.80;;
32152;SDS011;18656;50.580;11.392;2023-04-01T04:03:42;2.40;;;0.70;;
32152;SDS011;18656;50.580;11.392;2023-04-01T04:06:11;1.17;;;0.73;;
32152;SDS011;18656;50.580;11.392;2023-04-01T04:08:38;2.50;;;0.60;;
32152;SDS011;18656;50.580;11.392;2023-04-01T04:11:05;2.08;;;0.50;;
32152;SDS011;18656;50.580;11.392;2023-04-01T04:13:33;1.88;;;0.68;;
32152;SDS011;18656;50.580;11.392;2023-04-01T04:16:02;2.90;;;0.50;;
32152;SDS011;18656;50.580;11.392;2023-04-01T04:18:29;2.05;;;0.38;;
32152;SDS011;18656;50.580;11.392;2023-04-01T04:20:56;1.75;;;0.40;;
32152;SDS011;18656;50.580;11.392;2023-04-01T04:23:24;3.17;;;0.60;;
32152;SDS011;18656;50.580;11.392;2023-04-01T04:25:55;2.38;;;0.50;;
32152;SDS011;18656;50.580;11.392;2023-04-01T04:28:22;1.45;;;0.50;;
32152;SDS011;18656;50.580;11.392;2023-04-01T04:30:50;2.28;;;0.60;;
32152;SDS011;18656;50.580;11.392;2023-04-01T04:33:17;3.75;;;0.75;;
32152;SDS011;18656;50.580;11.392;2023-04-01T04:35:44;1.27;;;0.50;;
32152;SDS011;18656;50.580;11.392;2023-04-01T04:38:11;0.77;;;0.40;;
32152;SDS011;18656;50.580;11.392;2023-04-01T04:40:39;2.40;;;0.20;;
32152;SDS011;18656;50.580;11.392;2023-04-01T04:43:06;1.70;;;0.68;;
32152;SDS011;18656;50.580;11.392;2023-04-01T04:45:33;3.13;;;0.60;;
32152;SDS011;18656;50.580;11.392;2023-04-01T04:48:01;2.40;;;0.47;;
32152;SDS011;18656;50.580;11.392;2023-04-01T04:50:28;1.58;;;0.57;;
32152;SDS011;18656;50.580;11.392;2023-04-01T04:52:55;0.60;;;0.50;;
32152;SDS011;18656;50.580;11.392;2023-04-01T04:55:22;1.48;;;0.57;;
32152;SDS011;18656;50.580;11.392;2023-04-01T04:57:49;1.80;;;0.43;;
32152;SDS011;18656;50.580;11.392;2023-04-01T05:00:17;3.72;;;0.60;;
32152;SDS011;18656;50.580;11.392;2023-04-01T05:02:44;1.25;;;0.40;;
32152;SDS011;18656;50.580;11.392;2023-04-01T05:05:11;2.13;;;0.40;;
32152;SDS011;18656;50.580;11.392;2023-04-01T05:07:39;0.57;;;0.40;;
32152;SDS011;18656;50.580;11.392;2023-04-01T05:10:06;2.17;;;0.77;;
32152;SDS011;18656;50.580;11.392;2023-04-01T05:12:33;3.15;;;0.70;;
32152;SDS011;18656;50.580;11.392;2023-04-01T05:15:04;2.33;;;0.80;;
32152;SDS011;18656;50.580;11.392;2023-04-01T05:17:31;6.18;;;0.80;;
32152;SDS011;18656;50.580;11.392;2023-04-01T05:19:59;1.42;;;0.52;;
32152;SDS011;18656;50.580;11.392;2023-04-01T05:22:26;0.77;;;0.40;;
32152;SDS011;18656;50.580;11.392;2023-04-01T05:24:53;3.58;;;0.70;;
32152;SDS011;18656;50.580;11.392;2023-04-01T05:27:20;3.20;;;0.50;;
32152;SDS011;18656;50.580;11.392;2023-04-01T05:29:47;1.63;;;0.50;;
32152;SDS011;18656;50.580;11.392;2023-04-01T05:32:15;4.32;;;1.10;;
32152;SDS011;18656;50.580;11.392;2023-04-01T05:34:42;1.60;;;0.50;;
32152;SDS011;18656;50.580;11.392;2023-04-01T05:37:09;3.97;;;0.88;;
32152;SDS011;18656;50.580;11.392;2023-04-01T05:39:37;2.60;;;0.65;;
32152;SDS011;18656;50.580;11.392;2023-04-01T05:42:07;4.65;;;0.70;;
32152;SDS011;18656;50.580;11.392;2023-04-01T05:44:35;3.08;;;0.55;;
32152;SDS011;18656;50.580;11.392;2023-04-01T05:47:03;2.47;;;0.50;;
32152;SDS011;18656;50.580;11.392;2023-04-01T05:49:30;1.77;;;0.75;;
32152;SDS011;18656;50.580;11.392;2023-04-01T05:51:57;1.90;;;0.55;;
32152;SDS011;18656;50.580;11.392;2023-04-01T05:54:25;1.13;;;0.50;;
32152;SDS011;18656;50.580;11.392;2023-04-01T05:56:52;4.22;;;0.60;;
32152;SDS011;18656;50.580;11.392;2023-04-01T05:59:19;1.10;;;0.47;;
32152;SDS011;18656;50.580;11.392;2023-04-01T06:01:46;3.58;;;1.13;;
32152;SDS011;18656;50.580;11.392;2023-04-01T06:04:14;2.38;;;0.75;;
32152;SDS011;18656;50.580;11.392;2023-04-01T06:06:42;2.60;;;0.40;;
32152;SDS011;18656;50.580;11.392;2023-04-01T06:09:12;3.72;;;0.55;;
32152;SDS011;18656;50.580;11.392;2023-04-01T06:11:44;1.75;;;0.52;;
32152;SDS011;18656;50.580;11.392;2023-04-01T06:24:43;2.53;;;0.80;;
32152;SDS011;18656;50.580;11.392;2023-04-01T06:27:16;2.03;;;0.40;;
32152;SDS011;18656;50.580;11.392;2023-04-01T06:29:50;1.75;;;0.60;;
32152;SDS011;18656;50.580;11.392;2023-04-01T06:34:54;2.28;;;0.60;;
32152;SDS011;18656;50.580;11.392;2023-04-01T06:43:00;3.90;;;0.68;;
32152;SDS011;18656;50.580;11.392;2023-04-01T06:45:39;4.78;;;1.02;;
32152;SDS011;18656;50.580;11.392;2023-04-01T06:53:23;1.60;;;0.57;;
32152;SDS011;18656;50.580;11.392;2023-04-01T06:55:53;1.70;;;0.90;;
32152;SDS011;18656;50.580;11.392;2023-04-01T06:58:23;2.08;;;0.40;;
32152;SDS011;18656;50.580;11.392;2023-04-01T07:00:53;4.05;;;0.57;;
32152;SDS011;18656;50.580;11.392;2023-04-01T07:05:49;2.03;;;0.43;;
32152;SDS011;18656;50.580;11.392;2023-04-01T07:08:25;2.65;;;0.60;;
32152;SDS011;18656;50.580;11.392;2023-04-01T07:10:56;1.95;;;0.30;;
32152;SDS011;18656;50.580;11.392;2023-04-01T07:19:05;1.20;;;0.43;;
32152;SDS011;18656;50.580;11.392;2023-04-01T07:21:37;1.20;;;0.52;;
32152;SDS011;18656;50.580;11.392;2023-04-01T07:24:25;0.22;;;0.22;;
32152;SDS011;18656;50.580;11.392;2023-04-01T07:26:54;3.10;;;0.32;;
32152;SDS011;18656;50.580;11.392;2023-04-01T07:29:22;2.60;;;2.20;;
32152;SDS011;18656;50.580;11.392;2023-04-01T07:34:39;0.73;;;0.30;;
32152;SDS011;18656;50.580;11.392;2023-04-01T07:37:18;0.73;;;0.35;;
32152;SDS011;18656;50.580;11.392;2023-04-01T07:40:02;0.43;;;0.25;;
32152;SDS011;18656;50.580;11.392;2023-04-01T07:42:47;2.55;;;0.50;;
32152;SDS011;18656;50.580;11.392;2023-04-01T07:45:19;1.25;;;0.30;;
32152;SDS011;18656;50.580;11.392;2023-04-01T07:47:57;1.30;;;0.38;;
32152;SDS011;18656;50.580;11.392;2023-04-01T07:50:31;1.83;;;0.40;;
32152;SDS011;18656;50.580;11.392;2023-04-01T07:53:03;1.35;;;0.30;;
32152;SDS011;18656;50.580;11.392;2023-04-01T07:55:42;1.85;;;0.20;;
32152;SDS011;18656;50.580;11.392;2023-04-01T07:58:29;1.65;;;0.30;;
32152;SDS011;18656;50.580;11.392;2023-04-01T08:08:52;1.63;;;0.35;;
32152;SDS011;18656;50.580;11.392;2023-04-01T08:24:49;0.60;;;0.30;;
32152;SDS011;18656;50.580;11.392;2023-04-01T08:27:23;0.55;;;0.30;;
32152;SDS011;18656;50.580;11.392;2023-04-01T08:29:55;2.15;;;0.40;;
32152;SDS011;18656;50.580;11.392;2023-04-01T08:32:28;1.02;;;0.30;;
32152;SDS011;18656;50.580;11.392;2023-04-01T08:35:06;0.40;;;0.30;;
32152;SDS011;18656;50.580;11.392;2023-04-01T08:37:35;0.30;;;0.20;;
32152;SDS011;18656;50.580;11.392;2023-04-01T08:40:22;0.32;;;0.10;;
32152;SDS011;18656;50.580;11.392;2023-04-01T08:42:59;1.90;;;0.40;;
32152;SDS011;18656;50.580;11.392;2023-04-01T08:45:41;1.17;;;0.20;;
32152;SDS011;18656;50.580;11.392;2023-04-01T08:58:40;2.20;;;0.40;;
32152;SDS011;18656;50.580;11.392;2023-04-01T09:01:13;1.40;;;0.47;;
32152;SDS011;18656;50.580;11.392;2023-04-01T09:11:47;0.57;;;0.30;;
32152;SDS011;18656;50.580;11.392;2023-04-01T09:14:35;0.63;;;0.30;;
32152;SDS011;18656;50.580;11.392;2023-04-01T09:17:12;0.80;;;0.40;;
32152;SDS011;18656;50.580;11.392;2023-04-01T09:25:02;0.57;;;0.40;;
32152;SDS011;18656;50.580;11.392;2023-04-01T09:28:16;0.30;;;0.20;;
32152;SDS011;18656;50.580;11.392;2023-04-01T09:33:20;7.93;;;0.70;;
32152;SDS011;18656;50.580;11.392;2023-04-01T09:36:03;0.75;;;0.20;;
32152;SDS011;18656;50.580;11.392;2023-04-01T09:38:39;0.10;;;0.10;;
32152;SDS011;18656;50.580;11.392;2023-04-01T09:41:30;0.65;;;0.28;;
32152;SDS011;18656;50.580;11.392;2023-04-01T09:44:09;1.60;;;0.20;;
32152;SDS011;18656;50.580;11.392;2023-04-01T09:54:24;0.50;;;0.20;;
32152;SDS011;18656;50.580;11.392;2023-04-01T09:57:09;0.40;;;0.20;;
32152;SDS011;18656;50.580;11.392;2023-04-01T09:59:55;1.65;;;0.35;;
32152;SDS011;18656;50.580;11.392;2023-04-01T10:05:23;0.50;;;0.10;;
32152;SDS011;18656;50.580;11.392;2023-04-01T10:13:18;0.80;;;0.10;;
32152;SDS011;18656;50.580;11.392;2023-04-01T10:34:55;0.20;;;0.10;;
32152;SDS011;18656;50.580;11.392;2023-04-01T10:37:31;0.47;;;0.00;;
32152;SDS011;18656;50.580;11.392;2023-04-01T10:51:01;0.52;;;0.40;;
32152;SDS011;18656;50.580;11.392;2023-04-01T10:53:37;0.20;;;0.20;;
32152;SDS011;18656;50.580;11.392;2023-04-01T10:56:15;0.40;;;0.40;;
32152;SDS011;18656;50.580;11.392;2023-04-01T11:09:21;0.10;;;0.08;;
32152;SDS011;18656;50.580;11.392;2023-04-01T11:14:54;0.57;;;0.10;;
32152;SDS011;18656;50.580;11.392;2023-04-01T11:17:50;0.70;;;0.22;;
32152;SDS011;18656;50.580;11.392;2023-04-01T11:20:31;1.20;;;0.30;;
32152;SDS011;18656;50.580;11.392;2023-04-01T11:23:21;0.10;;;0.00;;
32152;SDS011;18656;50.580;11.392;2023-04-01T11:25:54;0.10;;;0.10;;
32152;SDS011;18656;50.580;11.392;2023-04-01T11:28:24;0.30;;;0.20;;
32152;SDS011;18656;50.580;11.392;2023-04-01T11:35:55;0.73;;;0.13;;
32152;SDS011;18656;50.580;11.392;2023-04-01T11:38:31;1.05;;;0.35;;
32152;SDS011;18656;50.580;11.392;2023-04-01T11:46:15;1.25;;;0.70;;
32152;SDS011;18656;50.580;11.392;2023-04-01T11:51:28;0.20;;;0.13;;
32152;SDS011;18656;50.580;11.392;2023-04-01T11:56:55;0.28;;;0.08;;
32152;SDS011;18656;50.580;11.392;2023-04-01T12:04:30;0.03;;;0.00;;
32152;SDS011;18656;50.580;11.392;2023-04-01T12:07:08;0.88;;;0.10;;
32152;SDS011;18656;50.580;11.392;2023-04-01T12:09:44;0.40;;;0.40;;
32152;SDS011;18656;50.580;11.392;2023-04-01T12:14:49;0.52;;;0.17;;
32152;SDS011;18656;50.580;11.392;2023-04-01T12:27:59;0.88;;;0.25;;
32152;SDS011;18656;50.580;11.392;2023-04-01T12:35:32;0.28;;;0.03;;
32152;SDS011;18656;50.580;11.392;2023-04-01T12:43:48;0.25;;;0.00;;
32152;SDS011;18656;50.580;11.392;2023-04-01T12:46:27;0.10;;;0.10;;
32152;SDS011;18656;50.580;11.392;2023-04-01T12:56:31;1.13;;;0.00;;
32152;SDS011;18656;50.580;11.392;2023-04-01T12:59:12;0.00;;;0.00;;
32152;SDS011;18656;50.580;11.392;2023-04-01T13:01:51;0.30;;;0.08;;
32152;SDS011;18656;50.580;11.392;2023-04-01T13:07:12;0.10;;;0.10;;
32152;SDS011;18656;50.580;11.392;2023-04-01T13:15:01;0.55;;;0.10;;
32152;SDS011;18656;50.580;11.392;2023-04-01T13:20:36;0.08;;;0.08;;
32152;SDS011;18656;50.580;11.392;2023-04-01T13:31:18;0.10;;;0.10;;
32152;SDS011;18656;50.580;11.392;2023-04-01T13:36:24;0.65;;;0.17;;
32152;SDS011;18656;50.580;11.392;2023-04-01T13:41:43;0.10;;;0.10;;
32152;SDS011;18656;50.580;11.392;2023-04-01T13:44:15;0.32;;;0.10;;
32152;SDS011;18656;50.580;11.392;2023-04-01T13:47:33;3.13;;;0.17;;
32152;SDS011;18656;50.580;11.392;2023-04-01T13:49:33;0.38;;;0.10;;
32152;SDS011;18656;50.580;11.392;2023-04-01T13:52:21;0.52;;;0.17;;
32152;SDS011;18656;50.580;11.392;2023-04-01T13:57:29;0.20;;;0.20;;
32152;SDS011;18656;50.580;11.392;2023-04-01T14:00:10;0.20;;;0.13;;
32152;SDS011;18656;50.580;11.392;2023-04-01T14:08:15;1.55;;;0.20;;
32152;SDS011;18656;50.580;11.392;2023-04-01T14:13:48;0.10;;;0.10;;
32152;SDS011;18656;50.580;11.392;2023-04-01T14:19:08;0.25;;;0.25;;
32152;SDS011;18656;50.580;11.392;2023-04-01T14:21:57;0.20;;;0.20;;
32152;SDS011;18656;50.580;11.392;2023-04-01T14:24:38;0.20;;;0.10;;
32152;SDS011;18656;50.580;11.392;2023-04-01T14:30:08;0.40;;;0.20;;
32152;SDS011;18656;50.580;11.392;2023-04-01T14:32:49;0.47;;;0.45;;
32152;SDS011;18656;50.580;11.392;2023-04-01T14:40:54;0.22;;;0.10;;
32152;SDS011;18656;50.580;11.392;2023-04-01T14:46:14;0.45;;;0.30;;
32152;SDS011;18656;50.580;11.392;2023-04-01T14:53:53;0.20;;;0.10;;
32152;SDS011;18656;50.580;11.392;2023-04-01T15:04:37;1.50;;;0.10;;
32152;SDS011;18656;50.580;11.392;2023-04-01T15:07:18;1.20;;;0.10;;
32152;SDS011;18656;50.580;11.392;2023-04-01T15:12:37;0.20;;;0.20;;
32152;SDS011;18656;50.580;11.392;2023-04-01T15:20:15;0.00;;;0.00;;
32152;SDS011;18656;50.580;11.392;2023-04-01T15:23:02;1.20;;;0.08;;
32152;SDS011;18656;50.580;11.392;2023-04-01T15:25:39;0.20;;;0.17;;
32152;SDS011;18656;50.580;11.392;2023-04-01T15:38:52;0.10;;;0.10;;
32152;SDS011;18656;50.580;11.392;2023-04-01T15:41:23;0.20;;;0.20;;
32152;SDS011;18656;50.580;11.392;2023-04-01T15:43:52;2.15;;;0.40;;
32152;SDS011;18656;50.580;11.392;2023-04-01T15:46:36;0.10;;;0.10;;
32152;SDS011;18656;50.580;11.392;2023-04-01T15:49:16;0.63;;;0.52;;
32152;SDS011;18656;50.580;11.392;2023-04-01T15:51:53;0.40;;;0.10;;
32152;SDS011;18656;50.580;11.392;2023-04-01T15:54:23;1.00;;;0.17;;
32152;SDS011;18656;50.580;11.392;2023-04-01T16:02:08;0.00;;;0.00;;
32152;SDS011;18656;50.580;11.392;2023-04-01T16:07:16;0.10;;;0.10;;
32152;SDS011;18656;50.580;11.392;2023-04-01T16:09:56;0.60;;;0.50;;
32152;SDS011;18656;50.580;11.392;2023-04-01T16:27:40;0.17;;;0.17;;
32152;SDS011;18656;50.580;11.392;2023-04-01T16:32:46;0.32;;;0.22;;
32152;SDS011;18656;50.580;11.392;2023-04-01T16:35:22;0.57;;;0.17;;
32152;SDS011;18656;50.580;11.392;2023-04-01T16:43:13;1.08;;;0.20;;
32152;SDS011;18656;50.580;11.392;2023-04-01T16:45:45;0.38;;;0.38;;
32152;SDS011;18656;50.580;11.392;2023-04-01T16:48:17;0.40;;;0.40;;
32152;SDS011;18656;50.580;11.392;2023-04-01T16:51:09;1.27;;;1.17;;
32152;SDS011;18656;50.580;11.392;2023-04-01T16:53:43;3.28;;;1.30;;
32152;SDS011;18656;50.580;11.392;2023-04-01T17:01:17;2.70;;;1.60;;
32152;SDS011;18656;50.580;11.392;2023-04-01T17:03:59;3.78;;;3.30;;
32152;SDS011;18656;50.580;11.392;2023-04-01T17:06:34;2.28;;;1.65;;
32152;SDS011;18656;50.580;11.392;2023-04-01T17:12:00;1.33;;;1.20;;
32152;SDS011;18656;50.580;11.392;2023-04-01T17:14:33;26.48;;;16.88;;
32152;SDS011;18656;50.580;11.392;2023-04-01T17:19:36;19.73;;;15.23;;
32152;SDS011;18656;50.580;11.392;2023-04-01T17:22:21;2.00;;;1.80;;
32152;SDS011;18656;50.580;11.392;2023-04-01T17:25:38;1.40;;;1.30;;
32152;SDS011;18656;50.580;11.392;2023-04-01T17:27:46;2.97;;;2.78;;
32152;SDS011;18656;50.580;11.392;2023-04-01T17:30:28;2.05;;;1.38;;
32152;SDS011;18656;50.580;11.392;2023-04-01T17:33:02;1.05;;;1.00;;
32152;SDS011;18656;50.580;11.392;2023-04-01T17:35:48;4.72;;;4.30;;
32152;SDS011;18656;50.580;11.392;2023-04-01T17:40:49;5.88;;;5.05;;
32152;SDS011;18656;50.580;11.392;2023-04-01T17:43:25;5.50;;;5.03;;
32152;SDS011;18656;50.580;11.392;2023-04-01T17:45:55;4.65;;;4.20;;
32152;SDS011;18656;50.580;11.392;2023-04-01T17:51:16;1.55;;;1.10;;
32152;SDS011;18656;50.580;11.392;2023-04-01T17:53:56;8.63;;;7.28;;
32152;SDS011;18656;50.580;11.392;2023-04-01T17:58:59;4.55;;;4.15;;
32152;SDS011;18656;50.580;11.392;2023-04-01T18:02:17;3.42;;;3.13;;
32152;SDS011;18656;50.580;11.392;2023-04-01T18:17:38;6.40;;;3.78;;
32152;SDS011;18656;50.580;11.392;2023-04-01T18:20:14;6.95;;;3.80;;
32152;SDS011;18656;50.580;11.392;2023-04-01T18:22:48;3.05;;;2.72;;
32152;SDS011;18656;50.580;11.392;2023-04-01T18:25:22;4.97;;;2.15;;
32152;SDS011;18656;50.580;11.392;2023-04-01T18:30:37;1.38;;;1.13;;
32152;SDS011;18656;50.580;11.392;2023-04-01T18:33:16;1.67;;;1.58;;
32152;SDS011;18656;50.580;11.392;2023-04-01T18:35:54;1.08;;;0.93;;
32152;SDS011;18656;50.580;11.392;2023-04-01T18:38:28;1.10;;;1.00;;
32152;SDS011;18656;50.580;11.392;2023-04-01T18:43:51;1.88;;;1.30;;
32152;SDS011;18656;50.580;11.392;2023-04-01T18:46:25;0.77;;;0.77;;
32152;SDS011;18656;50.580;11.392;2023-04-01T18:54:02;0.85;;;0.85;;
32152;SDS011;18656;50.580;11.392;2023-04-01T18:56:33;0.70;;;0.60;;
32152;SDS011;18656;50.580;11.392;2023-04-01T18:59:09;2.63;;;2.15;;
32152;SDS011;18656;50.580;11.392;2023-04-01T19:01:57;3.10;;;1.33;;
32152;SDS011;18656;50.580;11.392;2023-04-01T19:06:58;0.50;;;0.50;;
32152;SDS011;18656;50.580;11.392;2023-04-01T19:09:29;0.85;;;0.68;;
32152;SDS011;18656;50.580;11.392;2023-04-01T19:15:04;0.90;;;0.90;;
32152;SDS011;18656;50.580;11.392;2023-04-01T19:20:18;0.98;;;0.98;;
32152;SDS011;18656;50.580;11.392;2023-04-01T19:22:55;1.50;;;0.90;;
32152;SDS011;18656;50.580;11.392;2023-04-01T19:25:34;2.47;;;0.90;;
32152;SDS011;18656;50.580;11.392;2023-04-01T19:30:39;1.67;;;1.52;;
32152;SDS011;18656;50.580;11.392;2023-04-01T19:43:44;1.15;;;1.10;;
32152;SDS011;18656;50.580;11.392;2023-04-01T19:46:20;2.17;;;1.48;;
32152;SDS011;18656;50.580;11.392;2023-04-01T19:51:25;2.03;;;1.92;;
32152;SDS011;18656;50.580;11.392;2023-04-01T19:56:42;2.08;;;1.98;;
32152;SDS011;18656;50.580;11.392;2023-04-01T20:04:40;2.47;;;2.05;;
32152;SDS011;18656;50.580;11.392;2023-04-01T20:17:49;1.85;;;1.60;;
32152;SDS011;18656;50.580;11.392;2023-04-01T20:20:19;2.95;;;2.30;;
32152;SDS011;18656;50.580;11.392;2023-04-01T20:25:25;1.88;;;1.67;;
32152;SDS011;18656;50.580;11.392;2023-04-01T20:28:14;1.70;;;1.50;;
32152;SDS011;18656;50.580;11.392;2023-04-01T20:41:23;1.63;;;1.52;;
32152;SDS011;18656;50.580;11.392;2023-04-01T20:43:57;1.70;;;1.50;;
32152;SDS011;18656;50.580;11.392;2023-04-01T20:46:39;3.83;;;1.50;;
32152;SDS011;18656;50.580;11.392;2023-04-01T20:51:45;2.45;;;2.35;;
32152;SDS011;18656;50.580;11.392;2023-04-01T20:57:13;3.92;;;2.13;;
32152;SDS011;18656;50.580;11.392;2023-04-01T21:03:23;2.10;;;1.60;;
32152;SDS011;18656;50.580;11.392;2023-04-01T21:05:22;1.80;;;1.58;;
32152;SDS011;18656;50.580;11.392;2023-04-01T21:07:58;3.83;;;1.90;;
32152;SDS011;18656;50.580;11.392;2023-04-01T21:10:34;2.53;;;2.33;;
32152;SDS011;18656;50.580;11.392;2023-04-01T21:18:38;3.05;;;2.20;;
32152;SDS011;18656;50.580;11.392;2023-04-01T21:29:14;4.63;;;2.50;;
32152;SDS011;18656;50.580;11.392;2023-04-01T21:34:34;2.85;;;2.10;;
32152;SDS011;18656;50.580;11.392;2023-04-01T21:37:22;2.00;;;1.90;;
32152;SDS011;18656;50.580;11.392;2023-04-01T21:40:17;3.00;;;2.15;;
32152;SDS011;18656;50.580;11.392;2023-04-01T21:42:49;2.20;;;2.10;;
32152;SDS011;18656;50.580;11.392;2023-04-01T21:52:56;3.25;;;3.05;;
32152;SDS011;18656;50.580;11.392;2023-04-01T21:55:47;3.58;;;3.28;;
32152;SDS011;18656;50.580;11.392;2023-04-01T22:01:02;2.53;;;2.42;;
32152;SDS011;18656;50.580;11.392;2023-04-01T22:06:20;3.95;;;2.38;;
32152;SDS011;18656;50.580;11.392;2023-04-01T22:14:09;2.70;;;2.22;;
32152;SDS011;18656;50.580;11.392;2023-04-01T22:16:43;2.30;;;2.20;;
32152;SDS011;18656;50.580;11.392;2023-04-01T22:19:36;2.97;;;2.70;;
32152;SDS011;18656;50.580;11.392;2023-04-01T22:22:02;2.58;;;2.38;;
32152;SDS011;18656;50.580;11.392;2023-04-01T22:24:37;3.95;;;2.33;;
32152;SDS011;18656;50.580;11.392;2023-04-01T22:27:19;3.15;;;1.88;;
32152;SDS011;18656;50.580;11.392;2023-04-01T22:32:23;2.03;;;1.60;;
32152;SDS011;18656;50.580;11.392;2023-04-01T22:35:06;2.30;;;2.20;;
32152;SDS011;18656;50.580;11.392;2023-04-01T22:40:23;2.13;;;1.27;;
32152;SDS011;18656;50.580;11.392;2023-04-01T22:43:03;1.63;;;1.52;;
32152;SDS011;18656;50.580;11.392;2023-04-01T22:45:42;1.70;;;1.00;;
32152;SDS011;18656;50.580;11.392;2023-04-01T22:50:40;2.90;;;1.98;;
32152;SDS011;18656;50.580;11.392;2023-04-01T22:55:49;1.83;;;1.73;;
32152;SDS011;18656;50.580;11.392;2023-04-01T22:58:26;3.33;;;1.80;;
32152;SDS011;18656;50.580;11.392;2023-04-01T23:00:58;2.00;;;1.85;;
32152;SDS011;18656;50.580;11.392;2023-04-01T23:03:30;1.77;;;1.67;;
32152;SDS011;18656;50.580;11.392;2023-04-01T23:05:59;2.78;;;1.90;;